Livingston Manor, New York
Current Conditions -  °F | °C
As of 10:55 PM on Saturday 25 Oct 2014 (Local Time) from KMSV Reporting Station
Broken Clouds Broken Clouds  
Wind Chill: 55°   Ceiling: 4900
Heat Index: 55°   Visibility: 10mi
Dew Point: 43°   Wind: 12mph
Humidity: 63%   Direction: 310°NW
Pressure: 29.6"   Gusts: 22mph
Location:  41.9°N, 74.83°W
Report Text: KMSV 260255Z AUTO 31010G19KT 10SM FEW041 BKN049 BKN060 13/06 A2960 RMK AO1 54000
Loading
Personal Weather Stations






























Interactive Weather Map
Tropical Storm Tracking
New forecast layout! Learn more

10-Day Weather Forecast

Advertisements
Track Severe Weather on mobile